ENAT

Alta Airport

Alta, Norway
METAR ENAT 212150Z AUTO VRB02KT 9999 SCT012/// OVC019/// 09/07 Q1004 RMK WIND 700FT 34004KT
Observed Flight Rules
Jun-21 @ 21:50 UTC (17 minutes ago) Marginal Visual Flight Rules
Wind Visibility Clouds
Variable at 2 knots 10,000+ meters
  • Scattered at 1,200' AGL
  • Overcast at 1,900' AGL
Temperatures Readings
Current 9°C / 48°F
Dewpoint 7°C / 45°F
Humidity 87%
Altimeter 29.65" Hg
Pressure 1004 hPa
Elevation 3
METAR ENAT 212150Z AUTO VRB02KT 9999 SCT012/// OVC019/// 09/07 Q1004 RMK WIND 700FT 34004KT
Observed Flight Rules
Jun-21 @ 21:50 UTC
(17 minutes ago)
MVFR
Wind Visibility
Variable at 2 knots 10,000+ meters
Clouds
  • Scattered at 1,200' AGL
  • Overcast at 1,900' AGL
Temperature Dewpoint
9°C / 48°F 7°C / 45°F
Humidity Altimeter Pressure
87% 29.65" Hg 1004 hPa